sensor_id;sensor_type;location;lat;lon;timestamp;pressure;altitude;pressure_sealevel;temperature;humidity
24302;BME280;12421;49.732;20.078;2022-10-23T00:07:20;97057.98;;;13.10;87.28
24302;BME280;12421;49.732;20.078;2022-10-23T00:17:23;97060.27;;;13.10;86.83
24302;BME280;12421;49.732;20.078;2022-10-23T00:27:27;97065.99;;;13.06;86.86
24302;BME280;12421;49.732;20.078;2022-10-23T00:37:31;97087.27;;;13.09;87.27
24302;BME280;12421;49.732;20.078;2022-10-23T00:47:35;97096.39;;;13.11;87.07
24302;BME280;12421;49.732;20.078;2022-10-23T00:57:41;97105.03;;;13.11;87.32
24302;BME280;12421;49.732;20.078;2022-10-23T01:08:01;97106.42;;;13.12;87.17
24302;BME280;12421;49.732;20.078;2022-10-23T01:28:38;97113.48;;;13.21;87.11
24302;BME280;12421;49.732;20.078;2022-10-23T01:38:56;97113.41;;;13.25;86.72
24302;BME280;12421;49.732;20.078;2022-10-23T01:49:05;97132.40;;;13.27;86.22
24302;BME280;12421;49.732;20.078;2022-10-23T01:59:15;97142.70;;;13.23;85.65
24302;BME280;12421;49.732;20.078;2022-10-23T02:09:22;97135.88;;;13.10;85.57
24302;BME280;12421;49.732;20.078;2022-10-23T02:39:47;97150.74;;;12.50;84.26
24302;BME280;12421;49.732;20.078;2022-10-23T03:00:14;97161.36;;;11.82;83.91
24302;BME280;12421;49.732;20.078;2022-10-23T03:10:19;97160.66;;;11.51;83.81
24302;BME280;12421;49.732;20.078;2022-10-23T03:20:23;97177.23;;;11.27;83.78
24302;BME280;12421;49.732;20.078;2022-10-23T03:30:27;97181.34;;;11.00;83.91
24302;BME280;12421;49.732;20.078;2022-10-23T03:40:31;97183.27;;;10.79;84.44
24302;BME280;12421;49.732;20.078;2022-10-23T03:50:35;97189.96;;;10.53;85.01
24302;BME280;12421;49.732;20.078;2022-10-23T04:00:40;97192.61;;;10.50;86.74
24302;BME280;12421;49.732;20.078;2022-10-23T04:10:45;97195.77;;;10.48;86.23
24302;BME280;12421;49.732;20.078;2022-10-23T04:20:49;97192.89;;;10.36;86.35
24302;BME280;12421;49.732;20.078;2022-10-23T04:30:54;97190.48;;;10.24;86.25
24302;BME280;12421;49.732;20.078;2022-10-23T04:40:57;97195.93;;;10.21;86.66
24302;BME280;12421;49.732;20.078;2022-10-23T04:51:03;97194.77;;;10.09;85.49
24302;BME280;12421;49.732;20.078;2022-10-23T05:01:31;97197.83;;;9.82;85.09
24302;BME280;12421;49.732;20.078;2022-10-23T05:11:36;97198.80;;;9.52;84.54
24302;BME280;12421;49.732;20.078;2022-10-23T05:21:43;97203.39;;;9.31;85.47
24302;BME280;12421;49.732;20.078;2022-10-23T05:31:52;97204.13;;;9.17;85.11
24302;BME280;12421;49.732;20.078;2022-10-23T05:41:57;97195.73;;;8.88;84.63
24302;BME280;12421;49.732;20.078;2022-10-23T05:52:01;97199.05;;;8.88;85.84
24302;BME280;12421;49.732;20.078;2022-10-23T06:02:23;97197.46;;;9.17;86.86
24302;BME280;12421;49.732;20.078;2022-10-23T06:12:31;97201.10;;;9.46;87.69
24302;BME280;12421;49.732;20.078;2022-10-23T06:22:36;97216.05;;;9.88;89.18
24302;BME280;12421;49.732;20.078;2022-10-23T06:32:55;97221.79;;;10.43;89.52
24302;BME280;12421;49.732;20.078;2022-10-23T06:43:01;97231.61;;;10.97;89.44
24302;BME280;12421;49.732;20.078;2022-10-23T06:53:44;97247.99;;;11.55;89.34
24302;BME280;12421;49.732;20.078;2022-10-23T07:04:08;97249.42;;;12.04;88.52
24302;BME280;12421;49.732;20.078;2022-10-23T07:14:12;97254.25;;;12.41;87.07
24302;BME280;12421;49.732;20.078;2022-10-23T07:24:17;97265.76;;;12.50;84.90
24302;BME280;12421;49.732;20.078;2022-10-23T07:34:22;97269.28;;;12.63;84.22
24302;BME280;12421;49.732;20.078;2022-10-23T07:44:43;97268.67;;;12.69;83.75
24302;BME280;12421;49.732;20.078;2022-10-23T07:54:50;97266.57;;;12.55;83.16
24302;BME280;12421;49.732;20.078;2022-10-23T08:04:55;97277.04;;;12.62;83.49
24302;BME280;12421;49.732;20.078;2022-10-23T08:15:04;97280.91;;;12.87;84.28
24302;BME280;12421;49.732;20.078;2022-10-23T08:25:17;97271.04;;;13.24;85.02
24302;BME280;12421;49.732;20.078;2022-10-23T08:35:29;97262.30;;;13.62;84.52
24302;BME280;12421;49.732;20.078;2022-10-23T08:45:41;97263.02;;;13.90;84.56
24302;BME280;12421;49.732;20.078;2022-10-23T08:56:03;97259.77;;;14.40;84.80
24302;BME280;12421;49.732;20.078;2022-10-23T09:06:34;97258.24;;;14.86;83.55
24302;BME280;12421;49.732;20.078;2022-10-23T09:26:57;97257.61;;;15.28;84.05
24302;BME280;12421;49.732;20.078;2022-10-23T09:37:19;97258.27;;;15.79;83.16
24302;BME280;12421;49.732;20.078;2022-10-23T09:47:24;97260.27;;;16.05;81.72
24302;BME280;12421;49.732;20.078;2022-10-23T09:57:41;97255.22;;;16.14;80.68
24302;BME280;12421;49.732;20.078;2022-10-23T10:08:45;97242.36;;;16.30;79.59
24302;BME280;12421;49.732;20.078;2022-10-23T10:18:29;97236.02;;;16.34;78.55
24302;BME280;12421;49.732;20.078;2022-10-23T10:28:59;97224.58;;;16.38;78.16
24302;BME280;12421;49.732;20.078;2022-10-23T10:39:14;97216.56;;;16.46;77.87
24302;BME280;12421;49.732;20.078;2022-10-23T11:00:03;97181.83;;;16.76;74.56
24302;BME280;12421;49.732;20.078;2022-10-23T11:10:15;97176.73;;;16.85;73.79
24302;BME280;12421;49.732;20.078;2022-10-23T11:31:06;97148.45;;;17.20;71.28
24302;BME280;12421;49.732;20.078;2022-10-23T12:01:42;97122.43;;;17.84;68.02
24302;BME280;12421;49.732;20.078;2022-10-23T12:22:08;97106.70;;;18.10;66.37
24302;BME280;12421;49.732;20.078;2022-10-23T12:42:49;97077.29;;;18.31;67.21
24302;BME280;12421;49.732;20.078;2022-10-23T12:53:00;97058.67;;;18.65;66.69
24302;BME280;12421;49.732;20.078;2022-10-23T13:03:09;97049.36;;;19.09;63.21
24302;BME280;12421;49.732;20.078;2022-10-23T13:13:19;97051.38;;;19.38;61.86
24302;BME280;12421;49.732;20.078;2022-10-23T13:23:31;97047.15;;;19.03;61.44
24302;BME280;12421;49.732;20.078;2022-10-23T13:33:44;97051.65;;;18.54;61.61
24302;BME280;12421;49.732;20.078;2022-10-23T13:43:49;97045.24;;;18.14;61.51
24302;BME280;12421;49.732;20.078;2022-10-23T13:53:54;97032.39;;;17.83;61.82
24302;BME280;12421;49.732;20.078;2022-10-23T14:03:58;97033.10;;;17.55;63.03
24302;BME280;12421;49.732;20.078;2022-10-23T14:14:04;97037.02;;;17.34;64.62
24302;BME280;12421;49.732;20.078;2022-10-23T14:24:09;97040.78;;;17.04;65.65
24302;BME280;12421;49.732;20.078;2022-10-23T14:34:14;97042.83;;;16.65;67.05
24302;BME280;12421;49.732;20.078;2022-10-23T14:44:19;97045.31;;;16.30;68.32
24302;BME280;12421;49.732;20.078;2022-10-23T14:54:24;97044.51;;;15.94;69.78
24302;BME280;12421;49.732;20.078;2022-10-23T15:04:29;97044.05;;;15.49;70.64
24302;BME280;12421;49.732;20.078;2022-10-23T15:14:34;97049.30;;;14.92;71.60
24302;BME280;12421;49.732;20.078;2022-10-23T15:24:38;97049.59;;;14.39;72.66
24302;BME280;12421;49.732;20.078;2022-10-23T15:34:42;97059.73;;;13.79;73.55
24302;BME280;12421;49.732;20.078;2022-10-23T15:44:47;97059.50;;;13.23;74.35
24302;BME280;12421;49.732;20.078;2022-10-23T15:54:52;97050.88;;;12.62;75.09
24302;BME280;12421;49.732;20.078;2022-10-23T16:05:00;97055.27;;;12.07;75.81
24302;BME280;12421;49.732;20.078;2022-10-23T16:15:05;97056.80;;;11.59;76.59
24302;BME280;12421;49.732;20.078;2022-10-23T16:25:10;97062.58;;;11.16;77.13
24302;BME280;12421;49.732;20.078;2022-10-23T16:35:15;97072.27;;;10.80;77.40
24302;BME280;12421;49.732;20.078;2022-10-23T16:45:26;97082.68;;;10.33;78.09
24302;BME280;12421;49.732;20.078;2022-10-23T16:55:32;97100.48;;;9.88;78.58
24302;BME280;12421;49.732;20.078;2022-10-23T17:05:41;97110.81;;;9.56;79.68
24302;BME280;12421;49.732;20.078;2022-10-23T17:15:46;97126.17;;;9.19;79.71
24302;BME280;12421;49.732;20.078;2022-10-23T17:25:52;97134.45;;;8.98;80.08
24302;BME280;12421;49.732;20.078;2022-10-23T17:36:00;97128.16;;;8.74;79.94
24302;BME280;12421;49.732;20.078;2022-10-23T17:46:09;97130.79;;;8.45;81.10
24302;BME280;12421;49.732;20.078;2022-10-23T17:56:20;97140.23;;;8.31;81.27
24302;BME280;12421;49.732;20.078;2022-10-23T18:06:30;97129.33;;;8.19;81.24
24302;BME280;12421;49.732;20.078;2022-10-23T18:16:38;97113.20;;;7.97;81.11
24302;BME280;12421;49.732;20.078;2022-10-23T18:26:58;97107.58;;;7.83;82.01
24302;BME280;12421;49.732;20.078;2022-10-23T18:37:05;97101.24;;;7.66;82.51
24302;BME280;12421;49.732;20.078;2022-10-23T18:47:14;97108.52;;;7.51;83.03
24302;BME280;12421;49.732;20.078;2022-10-23T18:57:20;97119.14;;;7.42;82.72
24302;BME280;12421;49.732;20.078;2022-10-23T19:07:26;97111.60;;;7.35;82.58
24302;BME280;12421;49.732;20.078;2022-10-23T19:17:31;97084.33;;;7.30;82.26
24302;BME280;12421;49.732;20.078;2022-10-23T19:27:37;97075.82;;;6.99;81.98
24302;BME280;12421;49.732;20.078;2022-10-23T19:37:43;97081.26;;;6.76;82.79
24302;BME280;12421;49.732;20.078;2022-10-23T19:47:49;97085.17;;;6.62;83.49
24302;BME280;12421;49.732;20.078;2022-10-23T19:57:53;97070.59;;;6.48;83.79
24302;BME280;12421;49.732;20.078;2022-10-23T20:07:58;97071.16;;;6.52;83.75
24302;BME280;12421;49.732;20.078;2022-10-23T20:18:04;97068.76;;;6.33;83.33
24302;BME280;12421;49.732;20.078;2022-10-23T20:28:09;97064.71;;;6.30;83.50
24302;BME280;12421;49.732;20.078;2022-10-23T20:38:18;97053.51;;;6.24;83.31
24302;BME280;12421;49.732;20.078;2022-10-23T20:48:23;97065.70;;;6.23;83.37
24302;BME280;12421;49.732;20.078;2022-10-23T20:58:27;97073.09;;;6.12;83.04
24302;BME280;12421;49.732;20.078;2022-10-23T21:08:32;97058.70;;;5.99;83.36
24302;BME280;12421;49.732;20.078;2022-10-23T21:18:36;97059.29;;;5.87;84.12
24302;BME280;12421;49.732;20.078;2022-10-23T21:28:51;97056.68;;;5.88;84.26
24302;BME280;12421;49.732;20.078;2022-10-23T21:39:15;97042.77;;;5.76;83.87
24302;BME280;12421;49.732;20.078;2022-10-23T21:49:18;97034.31;;;5.66;84.45
24302;BME280;12421;49.732;20.078;2022-10-23T21:59:25;97013.23;;;5.64;84.18
24302;BME280;12421;49.732;20.078;2022-10-23T22:09:33;97007.59;;;5.57;84.17
24302;BME280;12421;49.732;20.078;2022-10-23T22:19:37;97004.13;;;5.58;84.10
24302;BME280;12421;49.732;20.078;2022-10-23T22:29:41;97005.65;;;5.54;84.34
24302;BME280;12421;49.732;20.078;2022-10-23T22:39:49;97001.92;;;5.32;84.58
24302;BME280;12421;49.732;20.078;2022-10-23T22:49:53;97008.88;;;5.16;85.42
24302;BME280;12421;49.732;20.078;2022-10-23T22:59:57;96996.02;;;5.16;86.31
24302;BME280;12421;49.732;20.078;2022-10-23T23:10:01;96982.41;;;5.12;86.75
24302;BME280;12421;49.732;20.078;2022-10-23T23:20:06;96967.55;;;5.22;87.86
24302;BME280;12421;49.732;20.078;2022-10-23T23:30:10;96967.45;;;5.30;87.73
24302;BME280;12421;49.732;20.078;2022-10-23T23:40:14;96967.05;;;5.42;87.69
24302;BME280;12421;49.732;20.078;2022-10-23T23:50:19;96946.55;;;5.46;87.68
